Time;durP1;ratioP1;P1;durP2;ratioP2;P2;SDS_P1;SDS_P2;PMS_P1;PMS_P2;Temp;Humidity;BMP_temperature;BMP_pressure;BME280_temperature;BME280_humidity;BME280_pressure;Samples;Min_cycle;Max_cycle;Signal;HPM_P1;HPM_P2
2022/02/24 00:01:50;;;;;;;5.50;1.50;;;;;;;;;;5090344;28;20561;-75
2022/02/24 00:04:23;;;;;;;7.43;1.30;;;;;;;;;;5097256;28;20444;-75
2022/02/24 00:06:53;;;;;;;2.70;1.40;;;;;;;;;;5097624;28;20766;-74
2022/02/24 00:09:26;;;;;;;3.80;1.43;;;;;;;;;;5096852;28;20792;-74
2022/02/24 00:11:55;;;;;;;4.60;1.57;;;;;;;;;;5096172;28;21118;-75
2022/02/24 00:14:24;;;;;;;4.50;1.43;;;;;;;;;;5096219;28;20938;-74
2022/02/24 00:16:52;;;;;;;9.03;2.63;;;;;;;;;;5096754;28;20459;-75
2022/02/24 00:19:20;;;;;;;12.27;1.57;;;;;;;;;;5096870;28;20547;-75
2022/02/24 00:21:48;;;;;;;5.07;1.77;;;;;;;;;;5097316;28;20459;-74
2022/02/24 00:24:15;;;;;;;6.67;1.60;;;;;;;;;;5096952;28;20456;-74
2022/02/24 00:26:43;;;;;;;4.03;1.60;;;;;;;;;;5095612;28;20506;-75
2022/02/24 00:29:11;;;;;;;8.70;1.77;;;;;;;;;;5096129;28;20455;-74
2022/02/24 00:31:41;;;;;;;4.67;1.37;;;;;;;;;;5095780;28;20514;-74
2022/02/24 00:34:09;;;;;;;7.20;1.93;;;;;;;;;;5096392;28;20455;-74
2022/02/24 00:36:37;;;;;;;5.40;1.53;;;;;;;;;;5096601;28;20870;-75
2022/02/24 00:39:05;;;;;;;4.53;1.73;;;;;;;;;;5096936;28;20460;-75
2022/02/24 00:41:36;;;;;;;3.77;1.37;;;;;;;;;;5097162;28;20843;-75
2022/02/24 00:44:04;;;;;;;3.90;1.27;;;;;;;;;;5096646;28;20479;-75
2022/02/24 00:46:37;;;;;;;5.60;2.03;;;;;;;;;;5096260;28;20479;-75
2022/02/24 00:49:07;;;;;;;5.70;2.07;;;;;;;;;;5096511;28;20458;-75
2022/02/24 00:51:35;;;;;;;9.17;1.50;;;;;;;;;;5096074;28;20872;-75
2022/02/24 00:54:06;;;;;;;2.63;1.27;;;;;;;;;;5095763;28;20471;-75
2022/02/24 00:56:34;;;;;;;7.90;1.37;;;;;;;;;;5097187;28;20456;-75
2022/02/24 00:59:06;;;;;;;7.53;1.23;;;;;;;;;;5095956;28;20578;-75
2022/02/24 01:01:37;;;;;;;6.13;1.40;;;;;;;;;;5096160;28;20452;-75
2022/02/24 01:04:05;;;;;;;5.90;1.87;;;;;;;;;;5095716;28;20856;-75
2022/02/24 01:06:35;;;;;;;5.40;1.43;;;;;;;;;;5100214;28;20549;-75
2022/02/24 01:09:05;;;;;;;3.63;1.77;;;;;;;;;;5100225;28;20905;-75
2022/02/24 01:11:33;;;;;;;5.20;1.30;;;;;;;;;;5099754;28;20456;-75
2022/02/24 01:14:06;;;;;;;3.70;1.20;;;;;;;;;;5099699;28;20910;-76
2022/02/24 01:16:35;;;;;;;6.43;1.60;;;;;;;;;;5099635;28;20448;-74
2022/02/24 01:19:04;;;;;;;3.97;1.40;;;;;;;;;;5099211;28;20447;-75
2022/02/24 01:21:31;;;;;;;4.03;1.80;;;;;;;;;;5099587;28;20915;-74
2022/02/24 01:24:03;;;;;;;6.00;1.67;;;;;;;;;;5099769;28;20491;-76
2022/02/24 01:26:44;;;;;;;3.03;1.33;;;;;;;;;;5099054;28;20833;-75
2022/02/24 01:29:15;;;;;;;7.60;1.70;;;;;;;;;;5100021;28;20463;-75
2022/02/24 01:31:47;;;;;;;5.37;1.80;;;;;;;;;;5099791;28;20525;-75
2022/02/24 01:34:18;;;;;;;4.90;1.73;;;;;;;;;;5099146;28;20467;-74
2022/02/24 01:36:46;;;;;;;5.20;2.23;;;;;;;;;;5099948;28;20443;-74
2022/02/24 01:39:15;;;;;;;6.47;2.00;;;;;;;;;;5099294;28;20546;-74
2022/02/24 01:41:47;;;;;;;5.70;1.30;;;;;;;;;;5099142;28;20443;-75
2022/02/24 01:44:15;;;;;;;7.83;2.33;;;;;;;;;;5098573;28;20459;-75
2022/02/24 01:46:44;;;;;;;11.20;1.63;;;;;;;;;;5099054;28;20483;-75
2022/02/24 01:49:14;;;;;;;4.20;1.60;;;;;;;;;;5098581;28;20473;-74
2022/02/24 01:51:42;;;;;;;3.37;1.13;;;;;;;;;;5100343;28;20487;-75
2022/02/24 01:54:10;;;;;;;4.40;1.30;;;;;;;;;;5099165;28;20485;-75
2022/02/24 01:56:42;;;;;;;3.60;1.70;;;;;;;;;;5098271;28;20455;-74
2022/02/24 01:59:10;;;;;;;4.47;1.20;;;;;;;;;;5099437;28;20463;-75
2022/02/24 02:01:38;;;;;;;4.30;1.00;;;;;;;;;;5099010;28;20779;-75
2022/02/24 02:04:06;;;;;;;6.13;1.20;;;;;;;;;;5099329;28;20448;-74
2022/02/24 02:06:37;;;;;;;7.53;1.30;;;;;;;;;;5099535;28;20546;-74
2022/02/24 02:09:05;;;;;;;3.93;1.60;;;;;;;;;;5099367;28;20455;-74
2022/02/24 02:11:36;;;;;;;10.67;1.53;;;;;;;;;;5098950;28;20899;-75
2022/02/24 02:14:06;;;;;;;2.90;1.30;;;;;;;;;;5099561;28;21065;-74
2022/02/24 02:16:34;;;;;;;6.97;1.20;;;;;;;;;;5098573;28;20892;-75
2022/02/24 02:19:02;;;;;;;6.20;1.50;;;;;;;;;;5097700;28;20463;-76
2022/02/24 02:21:36;;;;;;;2.70;1.07;;;;;;;;;;5098986;28;20452;-75
2022/02/24 02:24:05;;;;;;;4.50;1.73;;;;;;;;;;5098953;28;20456;-75
2022/02/24 02:26:33;;;;;;;6.20;1.60;;;;;;;;;;5099058;28;20531;-74
2022/02/24 02:29:01;;;;;;;4.30;1.40;;;;;;;;;;5098635;28;20456;-75
2022/02/24 02:31:29;;;;;;;5.17;1.33;;;;;;;;;;5098326;28;20517;-75
2022/02/24 02:34:17;;;;;;;;;;;;;;;;;;;;;
2022/02/24 02:36:47;;;;;;;6.43;1.57;;;;;;;;;;5098154;28;20462;-75
2022/02/24 02:39:17;;;;;;;7.40;1.50;;;;;;;;;;5099194;28;20546;-75
2022/02/24 02:41:49;;;;;;;3.83;1.30;;;;;;;;;;5098997;28;20880;-75
2022/02/24 02:44:20;;;;;;;3.67;2.20;;;;;;;;;;5099399;28;20464;-75
2022/02/24 02:46:48;;;;;;;2.60;1.57;;;;;;;;;;5098294;28;20497;-74
2022/02/24 02:49:18;;;;;;;7.80;1.60;;;;;;;;;;5098894;28;20474;-75
2022/02/24 02:51:47;;;;;;;3.60;1.20;;;;;;;;;;5098071;28;20487;-75
2022/02/24 02:54:16;;;;;;;4.60;1.97;;;;;;;;;;5098067;28;20459;-75
2022/02/24 02:56:46;;;;;;;3.80;1.10;;;;;;;;;;5098583;28;20448;-75
2022/02/24 02:59:17;;;;;;;6.67;1.40;;;;;;;;;;5098371;28;20551;-75
2022/02/24 03:01:51;;;;;;;7.03;1.90;;;;;;;;;;5098095;28;20650;-75
2022/02/24 03:04:22;;;;;;;2.53;1.50;;;;;;;;;;5097995;28;20505;-75
2022/02/24 03:06:52;;;;;;;6.37;2.23;;;;;;;;;;5098141;28;20463;-74
2022/02/24 03:09:23;;;;;;;5.27;2.03;;;;;;;;;;5098620;28;20447;-74
2022/02/24 03:11:50;;;;;;;7.23;1.77;;;;;;;;;;5098214;28;20858;-74
2022/02/24 03:14:21;;;;;;;7.37;1.67;;;;;;;;;;5098373;28;20462;-74
2022/02/24 03:16:51;;;;;;;6.77;1.37;;;;;;;;;;5098533;28;20443;-76
2022/02/24 03:19:24;;;;;;;4.53;1.70;;;;;;;;;;5098222;28;20451;-75
2022/02/24 03:21:56;;;;;;;6.23;1.67;;;;;;;;;;5097557;28;20523;-75
2022/02/24 03:24:24;;;;;;;5.10;1.70;;;;;;;;;;5097429;28;20459;-75
2022/02/24 03:26:52;;;;;;;6.17;2.57;;;;;;;;;;5097007;28;20450;-76
2022/02/24 03:29:21;;;;;;;3.50;1.90;;;;;;;;;;5097909;28;20567;-75
2022/02/24 03:31:50;;;;;;;3.00;1.37;;;;;;;;;;5096851;28;20531;-75
2022/02/24 03:34:19;;;;;;;2.90;1.23;;;;;;;;;;5097384;28;20464;-74
2022/02/24 03:36:51;;;;;;;2.03;1.17;;;;;;;;;;5097343;28;20455;-75
2022/02/24 03:39:25;;;;;;;7.13;2.23;;;;;;;;;;5098087;28;20462;-75
2022/02/24 03:41:54;;;;;;;6.00;2.20;;;;;;;;;;5097651;28;20474;-75
2022/02/24 03:44:25;;;;;;;4.63;1.60;;;;;;;;;;5097443;28;20467;-75
2022/02/24 03:46:55;;;;;;;4.17;1.97;;;;;;;;;;5097478;28;20460;-74
2022/02/24 03:49:28;;;;;;;7.33;1.80;;;;;;;;;;5097431;28;20488;-75
2022/02/24 03:54:41;;;;;;;5.30;2.00;;;;;;;;;;5091650;28;20451;-75
2022/02/24 03:57:11;;;;;;;5.40;1.53;;;;;;;;;;5096934;28;20537;-75
2022/02/24 03:59:42;;;;;;;5.27;1.93;;;;;;;;;;5096718;28;20452;-75
2022/02/24 04:02:12;;;;;;;5.10;1.77;;;;;;;;;;5097058;28;21201;-75
2022/02/24 04:04:44;;;;;;;2.97;1.93;;;;;;;;;;5096966;28;20448;-75
2022/02/24 04:07:15;;;;;;;7.17;1.60;;;;;;;;;;5097322;28;20447;-75
2022/02/24 04:09:46;;;;;;;3.87;1.50;;;;;;;;;;5096864;28;20455;-75
2022/02/24 04:12:15;;;;;;;6.20;1.40;;;;;;;;;;5096919;28;20454;-74
2022/02/24 04:14:44;;;;;;;3.10;1.73;;;;;;;;;;5096613;28;20471;-73
2022/02/24 04:17:22;;;;;;;6.73;2.53;;;;;;;;;;5096818;28;20459;-75
2022/02/24 04:19:53;;;;;;;5.23;1.40;;;;;;;;;;5097349;28;20443;-75
2022/02/24 04:22:23;;;;;;;3.97;2.07;;;;;;;;;;5096943;28;20456;-75
2022/02/24 04:24:53;;;;;;;9.40;2.13;;;;;;;;;;5096862;28;20513;-75
2022/02/24 04:27:25;;;;;;;4.23;1.63;;;;;;;;;;5096806;28;20428;-75
2022/02/24 04:30:00;;;;;;;4.37;1.37;;;;;;;;;;5096911;28;20451;-74
2022/02/24 04:32:28;;;;;;;5.20;1.90;;;;;;;;;;5096773;28;20455;-75
2022/02/24 04:34:56;;;;;;;4.93;1.67;;;;;;;;;;5096460;28;20505;-74
2022/02/24 04:37:24;;;;;;;3.83;1.90;;;;;;;;;;5096414;28;20456;-74
2022/02/24 04:39:57;;;;;;;7.17;1.40;;;;;;;;;;5095709;28;20475;-76
2022/02/24 04:42:28;;;;;;;4.13;2.20;;;;;;;;;;5096987;28;20452;-75
2022/02/24 04:44:57;;;;;;;7.27;1.80;;;;;;;;;;5096087;28;20610;-75
2022/02/24 04:47:26;;;;;;;5.10;2.07;;;;;;;;;;5096736;28;20444;-75
2022/02/24 04:50:03;;;;;;;3.83;1.40;;;;;;;;;;5096748;28;20468;-75
2022/02/24 04:52:31;;;;;;;5.10;2.47;;;;;;;;;;5096365;28;20443;-75
2022/02/24 04:55:01;;;;;;;7.27;1.37;;;;;;;;;;5095775;28;20448;-75
2022/02/24 04:57:28;;;;;;;8.33;2.33;;;;;;;;;;5096445;28;20447;-75
2022/02/24 04:59:56;;;;;;;6.13;1.70;;;;;;;;;;5096148;28;20459;-74
2022/02/24 05:02:27;;;;;;;4.07;1.63;;;;;;;;;;5095703;28;20462;-75
2022/02/24 05:05:03;;;;;;;9.23;2.37;;;;;;;;;;5095388;28;20460;-74
2022/02/24 05:07:44;;;;;;;2.60;1.20;;;;;;;;;;5095693;28;20871;-74
2022/02/24 05:10:20;;;;;;;5.90;1.90;;;;;;;;;;5095948;28;20471;-75
2022/02/24 05:12:55;;;;;;;3.60;1.77;;;;;;;;;;5095880;28;20436;-74
2022/02/24 05:15:23;;;;;;;4.37;1.80;;;;;;;;;;5096275;28;20467;-75
2022/02/24 05:17:52;;;;;;;5.60;1.93;;;;;;;;;;5096222;28;20904;-75
2022/02/24 05:20:27;;;;;;;6.90;2.40;;;;;;;;;;5095297;28;20452;-75
2022/02/24 05:22:55;;;;;;;11.87;2.47;;;;;;;;;;5095567;28;20448;-75
2022/02/24 05:25:24;;;;;;;5.63;1.90;;;;;;;;;;5095487;28;20456;-74
2022/02/24 05:27:52;;;;;;;2.33;1.90;;;;;;;;;;5075374;28;20480;-74
2022/02/24 05:30:20;;;;;;;8.77;2.03;;;;;;;;;;5086906;28;20518;-75
2022/02/24 05:32:48;;;;;;;4.77;1.80;;;;;;;;;;5096030;28;20465;-74
2022/02/24 05:35:16;;;;;;;8.07;2.27;;;;;;;;;;5095694;28;20463;-75
2022/02/24 05:37:47;;;;;;;5.97;1.90;;;;;;;;;;5096155;28;20722;-76
2022/02/24 05:40:17;;;;;;;5.83;2.37;;;;;;;;;;5095075;28;20470;-75
2022/02/24 05:42:47;;;;;;;7.30;1.97;;;;;;;;;;5090668;28;20460;-75
2022/02/24 05:45:20;;;;;;;6.63;2.30;;;;;;;;;;5094657;28;20457;-75
2022/02/24 05:51:15;;;;;;;8.93;2.10;;;;;;;;;;5067921;28;20555;-74
2022/02/24 05:53:57;;;;;;;5.60;1.67;;;;;;;;;;5093431;28;20550;-76
2022/02/24 05:56:35;;;;;;;4.83;1.80;;;;;;;;;;5098836;28;20451;-76
2022/02/24 05:59:08;;;;;;;6.67;3.03;;;;;;;;;;5097848;28;20942;-75
2022/02/24 06:01:39;;;;;;;8.43;2.03;;;;;;;;;;5087790;28;20464;-75
2022/02/24 06:04:07;;;;;;;4.67;2.63;;;;;;;;;;5094253;28;20534;-76
2022/02/24 06:06:37;;;;;;;6.57;2.07;;;;;;;;;;5097463;28;20459;-75
2022/02/24 06:09:17;;;;;;;5.30;2.03;;;;;;;;;;5098229;28;20483;-75
2022/02/24 06:12:10;;;;;;;6.30;2.20;;;;;;;;;;5077975;28;20483;-75
2022/02/24 06:14:40;;;;;;;6.47;1.60;;;;;;;;;;5087620;28;20455;-75
2022/02/24 06:23:14;;;;;;;8.27;3.67;;;;;;;;;;5090361;28;20882;-76
2022/02/24 06:25:45;;;;;;;4.20;2.60;;;;;;;;;;5096015;28;20517;-74
2022/02/24 06:28:25;;;;;;;4.40;2.00;;;;;;;;;;5096667;28;20493;-75
2022/02/24 06:31:04;;;;;;;9.00;2.37;;;;;;;;;;5092686;28;20467;-74
2022/02/24 06:33:35;;;;;;;5.43;1.97;;;;;;;;;;5095977;28;20464;-75
2022/02/24 06:36:06;;;;;;;5.80;2.50;;;;;;;;;;5096866;28;20454;-74
2022/02/24 06:38:44;;;;;;;5.13;1.80;;;;;;;;;;5098689;28;20455;-75
2022/02/24 06:41:21;;;;;;;4.97;2.43;;;;;;;;;;5115773;28;20811;-74
2022/02/24 06:43:49;;;;;;;8.57;2.10;;;;;;;;;;5089697;28;20552;-75
2022/02/24 06:46:18;;;;;;;8.00;3.00;;;;;;;;;;5093838;28;20498;-75
2022/02/24 06:48:46;;;;;;;7.80;2.20;;;;;;;;;;5094381;28;20483;-74
2022/02/24 06:51:15;;;;;;;5.13;2.23;;;;;;;;;;5084193;28;20557;-75
2022/02/24 06:53:56;;;;;;;5.90;2.60;;;;;;;;;;5078867;28;20473;-75
2022/02/24 06:56:31;;;;;;;5.10;1.90;;;;;;;;;;5085540;28;20606;-76
2022/02/24 06:59:16;;;;;;;6.87;1.93;;;;;;;;;;5087996;28;20445;-76
2022/02/24 07:01:46;;;;;;;6.47;1.67;;;;;;;;;;5074587;28;20484;-75
2022/02/24 07:04:14;;;;;;;6.13;2.13;;;;;;;;;;5079553;28;20473;-74
2022/02/24 07:06:47;;;;;;;4.73;2.10;;;;;;;;;;5083601;28;20443;-76
2022/02/24 07:09:28;;;;;;;9.20;2.60;;;;;;;;;;5107277;28;20989;-74
2022/02/24 07:12:00;;;;;;;5.30;2.23;;;;;;;;;;5115029;28;20441;-75
2022/02/24 07:14:46;;;;;;;5.30;2.73;;;;;;;;;;5094828;28;20474;-74
2022/02/24 07:17:21;;;;;;;6.33;2.23;;;;;;;;;;5094831;28;20452;-73
2022/02/24 07:19:50;;;;;;;11.83;2.77;;;;;;;;;;5094298;28;20451;-76
2022/02/24 07:22:28;;;;;;;3.00;1.70;;;;;;;;;;5094470;28;20455;-75
2022/02/24 07:25:07;;;;;;;9.37;2.27;;;;;;;;;;5102612;28;20464;-74
2022/02/24 07:27:38;;;;;;;11.93;2.90;;;;;;;;;;5078043;28;20505;-73
2022/02/24 07:30:11;;;;;;;6.30;2.70;;;;;;;;;;5095554;28;20907;-74
2022/02/24 07:32:45;;;;;;;7.40;2.33;;;;;;;;;;5089159;28;20459;-74
2022/02/24 07:35:25;;;;;;;6.43;2.57;;;;;;;;;;5075212;28;20788;-75
2022/02/24 07:37:56;;;;;;;9.10;2.60;;;;;;;;;;5073964;28;20880;-74
2022/02/24 07:40:25;;;;;;;8.37;3.20;;;;;;;;;;5074435;28;20449;-75
2022/02/24 07:42:55;;;;;;;9.20;3.27;;;;;;;;;;5078782;28;21113;-74
2022/02/24 07:45:23;;;;;;;5.83;2.27;;;;;;;;;;5084928;28;20476;-74
2022/02/24 07:47:56;;;;;;;6.27;2.67;;;;;;;;;;5095971;28;20466;-75
2022/02/24 07:50:26;;;;;;;4.93;1.80;;;;;;;;;;5094560;28;20476;-76
2022/02/24 07:53:01;;;;;;;9.10;2.23;;;;;;;;;;5095868;28;20455;-76
2022/02/24 07:55:33;;;;;;;8.83;2.97;;;;;;;;;;5112013;28;20447;-74
2022/02/24 07:58:16;;;;;;;8.00;2.60;;;;;;;;;;5111520;28;20565;-74
2022/02/24 08:00:52;;;;;;;7.87;3.27;;;;;;;;;;5095343;28;20700;-75
2022/02/24 08:03:25;;;;;;;6.20;2.23;;;;;;;;;;5094468;28;20455;-74
2022/02/24 08:05:55;;;;;;;13.20;2.80;;;;;;;;;;5093706;28;20461;-73
2022/02/24 08:08:28;;;;;;;8.43;2.60;;;;;;;;;;5094374;28;20444;-74
2022/02/24 08:11:00;;;;;;;4.63;2.23;;;;;;;;;;5094481;28;20444;-74
2022/02/24 08:13:49;;;;;;;8.10;2.70;;;;;;;;;;5095026;28;20463;-73
2022/02/24 08:16:28;;;;;;;5.97;2.30;;;;;;;;;;5094642;28;20525;-74
2022/02/24 08:19:14;;;;;;;4.30;2.40;;;;;;;;;;5095954;28;20517;-74
2022/02/24 08:21:54;;;;;;;5.77;2.70;;;;;;;;;;5100537;28;20450;-75
2022/02/24 08:24:24;;;;;;;4.70;2.30;;;;;;;;;;5093639;28;20451;-75
2022/02/24 08:27:02;;;;;;;8.03;2.70;;;;;;;;;;5086039;28;20448;-74
2022/02/24 08:29:33;;;;;;;5.60;2.50;;;;;;;;;;5077544;28;20495;-75
2022/02/24 08:32:04;;;;;;;13.70;6.10;;;;;;;;;;5073468;28;20511;-73
2022/02/24 08:34:38;;;;;;;10.93;4.73;;;;;;;;;;5075847;28;20459;-75
2022/02/24 08:37:07;;;;;;;7.40;2.67;;;;;;;;;;5094713;28;20448;-74
2022/02/24 08:39:38;;;;;;;20.30;5.00;;;;;;;;;;5097618;28;20444;-73
2022/02/24 08:42:07;;;;;;;6.40;3.13;;;;;;;;;;5093725;28;20455;-74
2022/02/24 08:44:39;;;;;;;11.20;3.60;;;;;;;;;;5074143;28;20448;-74
2022/02/24 08:47:14;;;;;;;3.93;2.40;;;;;;;;;;5074165;28;20456;-74
2022/02/24 08:50:02;;;;;;;9.33;3.17;;;;;;;;;;5089615;28;20621;-74
2022/02/24 08:52:39;;;;;;;8.40;2.13;;;;;;;;;;5093600;28;20488;-73
2022/02/24 08:58:20;;;;;;;7.33;4.83;;;;;;;;;;5071486;28;20518;-74
2022/02/24 09:06:46;;;;;;;6.60;3.30;;;;;;;;;;5082650;28;20906;-75
2022/02/24 09:09:39;;;;;;;5.90;2.90;;;;;;;;;;5094002;28;20483;-73
2022/02/24 09:12:33;;;;;;;6.90;3.00;;;;;;;;;;5093889;28;20528;-74
2022/02/24 09:15:14;;;;;;;8.33;2.00;;;;;;;;;;5083694;28;20505;-74
2022/02/24 09:17:47;;;;;;;10.80;2.77;;;;;;;;;;5073920;28;20452;-75
2022/02/24 09:26:26;;;;;;;6.00;2.80;;;;;;;;;;5092570;28;20463;-73
2022/02/24 09:34:52;;;;;;;4.33;2.23;;;;;;;;;;5087372;28;20459;-74
2022/02/24 09:37:26;;;;;;;12.57;2.97;;;;;;;;;;5105023;28;20443;-73
2022/02/24 09:40:10;;;;;;;6.93;3.30;;;;;;;;;;5092222;28;20547;-74
2022/02/24 09:42:47;;;;;;;8.07;3.00;;;;;;;;;;5095183;28;20455;-73
2022/02/24 09:45:30;;;;;;;5.10;2.60;;;;;;;;;;5099091;28;20533;-72
2022/02/24 09:48:24;;;;;;;;;;;;;;;;;;;;;
2022/02/24 09:51:02;;;;;;;9.47;3.30;;;;;;;;;;5092914;28;20482;-73
2022/02/24 09:56:39;;;;;;;6.10;2.33;;;;;;;;;;5083944;27;20485;-73
2022/02/24 09:59:22;;;;;;;19.73;4.03;;;;;;;;;;5054672;27;20506;-74
2022/02/24 10:02:12;;;;;;;10.00;3.30;;;;;;;;;;5035136;28;20469;-72
2022/02/24 10:05:09;;;;;;;12.17;4.20;;;;;;;;;;5038783;27;20454;-73
2022/02/24 10:07:45;;;;;;;11.43;3.60;;;;;;;;;;5099080;27;20541;-73
2022/02/24 10:10:38;;;;;;;6.70;4.07;;;;;;;;;;5063507;27;20499;-74
2022/02/24 10:13:44;;;;;;;13.33;5.00;;;;;;;;;;5055315;27;20462;-73
2022/02/24 10:16:20;;;;;;;7.10;2.20;;;;;;;;;;5036212;28;20981;-73
2022/02/24 10:18:48;;;;;;;12.77;4.97;;;;;;;;;;5095274;27;20534;-73
2022/02/24 10:21:26;;;;;;;11.67;3.93;;;;;;;;;;5122266;27;20461;-73
2022/02/24 10:23:54;;;;;;;5.77;2.50;;;;;;;;;;5136806;27;21023;-73
2022/02/24 10:26:23;;;;;;;5.40;3.00;;;;;;;;;;5059561;27;20534;-74
2022/02/24 10:28:55;;;;;;;6.23;2.90;;;;;;;;;;5054059;27;20469;-75
2022/02/24 10:31:34;;;;;;;15.40;3.87;;;;;;;;;;5033925;28;20826;-74
2022/02/24 10:34:11;;;;;;;2.90;2.10;;;;;;;;;;5070210;27;20436;-74
2022/02/24 10:36:54;;;;;;;6.73;2.20;;;;;;;;;;5067908;27;20469;-73
2022/02/24 10:39:36;;;;;;;5.20;2.10;;;;;;;;;;5043900;27;20453;-73
2022/02/24 10:42:05;;;;;;;10.60;3.90;;;;;;;;;;5051372;27;20600;-74
2022/02/24 10:44:38;;;;;;;8.27;2.70;;;;;;;;;;5050451;27;20469;-74
2022/02/24 10:47:24;;;;;;;15.83;3.50;;;;;;;;;;5074668;27;21134;-74
2022/02/24 10:49:54;;;;;;;21.50;2.57;;;;;;;;;;5052521;27;20478;-73
2022/02/24 10:52:24;;;;;;;8.40;3.50;;;;;;;;;;5052332;27;21066;-74
2022/02/24 10:54:58;;;;;;;7.47;3.43;;;;;;;;;;5052778;27;20533;-73
2022/02/24 10:57:28;;;;;;;6.90;2.43;;;;;;;;;;5056418;27;21112;-74
2022/02/24 10:59:56;;;;;;;7.63;2.50;;;;;;;;;;5071064;27;20468;-74
2022/02/24 11:02:29;;;;;;;10.80;2.83;;;;;;;;;;5040459;27;20477;-74
2022/02/24 11:05:10;;;;;;;11.33;2.80;;;;;;;;;;5051650;27;20501;-74
2022/02/24 11:07:46;;;;;;;11.17;3.77;;;;;;;;;;5036397;28;20469;-74
2022/02/24 11:10:15;;;;;;;7.23;2.63;;;;;;;;;;5013936;27;20513;-77
2022/02/24 11:12:48;;;;;;;6.47;2.60;;;;;;;;;;5053825;27;20450;-73
2022/02/24 11:15:17;;;;;;;6.20;2.60;;;;;;;;;;5055697;27;20869;-74
2022/02/24 11:18:00;;;;;;;5.20;2.53;;;;;;;;;;5055990;27;20466;-74
2022/02/24 11:20:30;;;;;;;5.30;2.50;;;;;;;;;;5061209;27;20460;-74
2022/02/24 11:23:22;;;;;;;5.73;2.90;;;;;;;;;;5131984;27;20568;-74
2022/02/24 11:26:05;;;;;;;4.40;2.50;;;;;;;;;;5146298;27;20445;-75
2022/02/24 11:28:47;;;;;;;11.00;2.83;;;;;;;;;;5136678;27;20443;-74
2022/02/24 11:31:19;;;;;;;6.90;2.30;;;;;;;;;;5113251;28;20487;-74
2022/02/24 11:33:49;;;;;;;6.30;2.63;;;;;;;;;;5108503;27;20449;-74
2022/02/24 11:36:25;;;;;;;11.30;2.43;;;;;;;;;;5052502;27;20460;-75
2022/02/24 11:39:33;;;;;;;4.60;1.40;;;;;;;;;;5056656;27;20749;-76
2022/02/24 11:42:13;;;;;;;7.10;2.63;;;;;;;;;;5057020;27;20505;-73
2022/02/24 11:44:45;;;;;;;8.00;3.10;;;;;;;;;;5080974;27;20458;-74
2022/02/24 11:47:22;;;;;;;7.27;3.20;;;;;;;;;;5051474;27;20458;-76
2022/02/24 11:50:26;;;;;;;6.07;3.20;;;;;;;;;;5041886;27;20897;-75
2022/02/24 11:53:16;;;;;;;6.53;2.60;;;;;;;;;;5038921;27;20466;-75
2022/02/24 11:55:48;;;;;;;7.63;2.37;;;;;;;;;;5042135;27;21009;-74
2022/02/24 11:58:34;;;;;;;8.20;5.50;;;;;;;;;;5032860;28;20558;-73
2022/02/24 12:01:26;;;;;;;5.67;2.90;;;;;;;;;;5033372;28;20526;-75
2022/02/24 12:03:58;;;;;;;9.90;2.93;;;;;;;;;;5030407;28;21052;-74
2022/02/24 12:06:52;;;;;;;5.13;2.20;;;;;;;;;;5017514;28;20961;-75
2022/02/24 12:09:24;;;;;;;5.27;2.63;;;;;;;;;;5036454;27;20474;-75
2022/02/24 12:11:53;;;;;;;4.60;3.10;;;;;;;;;;5037669;27;20481;-75
2022/02/24 12:14:44;;;;;;;4.50;2.80;;;;;;;;;;5052928;27;20476;-75
2022/02/24 12:17:22;;;;;;;4.57;2.70;;;;;;;;;;5030446;28;20466;-75
2022/02/24 12:19:53;;;;;;;3.40;2.60;;;;;;;;;;5033142;28;20458;-75
2022/02/24 12:22:23;;;;;;;3.57;2.40;;;;;;;;;;5031687;28;20875;-74
2022/02/24 12:24:52;;;;;;;6.20;2.73;;;;;;;;;;5030353;28;20552;-74
2022/02/24 12:27:28;;;;;;;6.00;2.67;;;;;;;;;;5031183;28;20534;-74
2022/02/24 12:29:58;;;;;;;5.87;2.10;;;;;;;;;;5090719;27;20462;-74
2022/02/24 12:32:52;;;;;;;10.73;3.57;;;;;;;;;;5075070;27;20521;-77
2022/02/24 12:35:55;;;;;;;10.10;2.60;;;;;;;;;;5057605;27;20840;-75
2022/02/24 12:41:35;;;;;;;4.60;2.20;;;;;;;;;;5048797;27;20826;-74
2022/02/24 12:44:03;;;;;;;8.80;3.57;;;;;;;;;;5049252;27;20454;-74
2022/02/24 12:46:35;;;;;;;6.10;2.30;;;;;;;;;;5050901;27;20461;-75
2022/02/24 12:49:07;;;;;;;8.93;2.73;;;;;;;;;;5049991;27;20481;-75
2022/02/24 12:51:38;;;;;;;7.03;2.80;;;;;;;;;;5051653;27;20536;-75
2022/02/24 12:54:13;;;;;;;6.57;2.93;;;;;;;;;;5052103;27;20454;-75
2022/02/24 12:57:04;;;;;;;4.83;2.80;;;;;;;;;;5051168;27;20465;-75
2022/02/24 12:59:58;;;;;;;4.90;3.13;;;;;;;;;;5051131;27;20453;-74
2022/02/24 13:02:32;;;;;;;4.50;2.57;;;;;;;;;;5038307;28;20482;-75
2022/02/24 13:05:10;;;;;;;9.40;2.23;;;;;;;;;;5087827;28;20805;-74
2022/02/24 13:10:48;;;;;;;7.10;3.40;;;;;;;;;;5036987;27;20678;-74
2022/02/24 13:13:30;;;;;;;5.80;3.63;;;;;;;;;;5043855;27;20580;-72
2022/02/24 13:16:26;;;;;;;8.37;4.43;;;;;;;;;;5036848;27;20458;-75
2022/02/24 13:24:45;;;;;;;3.60;1.80;;;;;;;;;;5043918;27;20694;-75
2022/02/24 13:27:18;;;;;;;3.60;2.00;;;;;;;;;;5036994;27;20431;-75
2022/02/24 13:29:50;;;;;;;3.50;1.53;;;;;;;;;;5055910;27;21069;-76
2022/02/24 13:32:34;;;;;;;4.50;1.60;;;;;;;;;;5080187;27;20500;-75
2022/02/24 13:35:19;;;;;;;3.37;1.60;;;;;;;;;;5075744;27;20543;-76
2022/02/24 13:37:54;;;;;;;7.00;3.17;;;;;;;;;;5038315;27;20530;-75
2022/02/24 13:40:32;;;;;;;4.50;2.10;;;;;;;;;;5037522;27;20964;-76
2022/02/24 13:43:26;;;;;;;4.23;2.20;;;;;;;;;;5035447;27;20853;-76
2022/02/24 13:49:25;;;;;;;3.87;1.57;;;;;;;;;;5031243;27;20538;-76
2022/02/24 13:51:53;;;;;;;14.97;1.53;;;;;;;;;;5087226;28;20482;-75
2022/02/24 13:54:27;;;;;;;6.27;2.90;;;;;;;;;;5020107;27;20534;-75
2022/02/24 13:56:57;;;;;;;4.20;1.50;;;;;;;;;;5038011;27;20461;-74
2022/02/24 13:59:28;;;;;;;3.00;1.07;;;;;;;;;;5026058;27;20471;-75
2022/02/24 14:01:56;;;;;;;5.37;1.50;;;;;;;;;;5034860;27;20465;-74
2022/02/24 14:04:33;;;;;;;2.40;1.00;;;;;;;;;;5038741;27;20538;-75
2022/02/24 14:07:02;;;;;;;4.67;1.60;;;;;;;;;;5026281;27;20577;-74
2022/02/24 14:12:31;;;;;;;5.13;1.57;;;;;;;;;;5026893;27;20455;-75
2022/02/24 14:15:02;;;;;;;5.47;2.07;;;;;;;;;;5017561;27;20906;-75
2022/02/24 14:20:38;;;;;;;6.80;3.33;;;;;;;;;;5028088;27;20819;-75
2022/02/24 14:26:27;;;;;;;3.90;1.50;;;;;;;;;;5019808;28;20474;-75
2022/02/24 14:29:26;;;;;;;4.80;1.73;;;;;;;;;;5023361;28;20456;-75
2022/02/24 14:35:25;;;;;;;2.57;1.20;;;;;;;;;;4984973;28;20482;-76
2022/02/24 14:37:56;;;;;;;4.67;1.40;;;;;;;;;;5071737;27;20489;-75
2022/02/24 14:40:37;;;;;;;3.97;1.17;;;;;;;;;;5047372;27;20861;-74
2022/02/24 14:46:01;;;;;;;6.93;2.10;;;;;;;;;;5023031;27;20454;-75
2022/02/24 14:48:36;;;;;;;2.60;1.47;;;;;;;;;;5032781;27;20477;-74
2022/02/24 14:51:11;;;;;;;3.97;1.53;;;;;;;;;;5023919;27;21201;-73
2022/02/24 14:53:43;;;;;;;13.90;6.27;;;;;;;;;;5018985;27;20524;-76
2022/02/24 15:08:00;;;;;;;5.00;2.20;;;;;;;;;;5029682;27;20903;-75
2022/02/24 15:13:17;;;;;;;3.87;2.37;;;;;;;;;;5038918;27;20569;-75
2022/02/24 15:15:54;;;;;;;1.97;1.07;;;;;;;;;;5035299;27;20450;-76
2022/02/24 15:27:49;;;;;;;;;;;;;;;;;;;;;
2022/02/24 15:30:28;;;;;;;3.40;1.70;;;;;;;;;;5129441;27;20446;-75
2022/02/24 15:33:19;;;;;;;3.73;1.20;;;;;;;;;;5061779;27;20486;-75
2022/02/24 15:42:05;;;;;;;3.20;1.73;;;;;;;;;;5024995;27;20969;-75
2022/02/24 15:44:57;;;;;;;4.27;1.73;;;;;;;;;;5023972;27;20461;-74
2022/02/24 15:47:47;;;;;;;3.10;1.50;;;;;;;;;;5024466;27;20531;-75
2022/02/24 15:50:45;;;;;;;4.00;2.03;;;;;;;;;;5030459;27;20455;-75
2022/02/24 15:56:42;;;;;;;3.40;1.93;;;;;;;;;;5037232;27;20459;-76
2022/02/24 16:02:18;;;;;;;5.57;2.37;;;;;;;;;;5019449;27;20467;-75
2022/02/24 16:08:28;;;;;;;3.93;1.43;;;;;;;;;;5058123;28;20476;-75
2022/02/24 16:11:20;;;;;;;4.80;2.30;;;;;;;;;;5033479;27;20454;-74
2022/02/24 16:17:28;;;;;;;9.10;1.43;;;;;;;;;;5033432;27;20504;-77
2022/02/24 16:22:41;;;;;;;2.10;1.27;;;;;;;;;;5033462;28;20595;-74
2022/02/24 16:25:22;;;;;;;5.40;1.77;;;;;;;;;;5033429;28;20890;-75
2022/02/24 16:27:53;;;;;;;2.50;1.23;;;;;;;;;;5033428;27;20628;-76
2022/02/24 16:30:33;;;;;;;6.30;2.30;;;;;;;;;;5032130;28;20875;-74
2022/02/24 16:33:23;;;;;;;7.13;2.23;;;;;;;;;;5035110;27;20548;-75
2022/02/24 16:36:04;;;;;;;3.20;1.40;;;;;;;;;;5035797;27;20717;-76
2022/02/24 16:38:50;;;;;;;3.67;1.50;;;;;;;;;;5049957;27;20457;-77
2022/02/24 16:41:32;;;;;;;2.90;1.70;;;;;;;;;;5044086;27;20482;-75
2022/02/24 16:44:04;;;;;;;8.07;1.80;;;;;;;;;;5079023;27;20744;-75
2022/02/24 16:46:32;;;;;;;2.37;1.00;;;;;;;;;;5039676;27;20573;-74
2022/02/24 16:49:00;;;;;;;2.70;1.20;;;;;;;;;;5039776;27;20546;-74
2022/02/24 16:51:33;;;;;;;4.50;1.57;;;;;;;;;;5050381;27;21140;-74
2022/02/24 16:54:02;;;;;;;5.73;2.27;;;;;;;;;;5047940;27;20437;-75
2022/02/24 16:56:30;;;;;;;3.37;1.60;;;;;;;;;;5042520;27;20462;-73
2022/02/24 16:58:58;;;;;;;5.90;2.27;;;;;;;;;;5037316;27;20455;-75
2022/02/24 17:01:29;;;;;;;4.40;2.20;;;;;;;;;;5045246;27;20449;-73
2022/02/24 17:04:04;;;;;;;3.90;1.70;;;;;;;;;;5050229;27;21057;-74
2022/02/24 17:06:34;;;;;;;3.70;1.87;;;;;;;;;;5067710;27;20586;-76
2022/02/24 17:09:07;;;;;;;6.27;1.77;;;;;;;;;;5038587;27;20526;-74
2022/02/24 17:11:38;;;;;;;6.10;2.07;;;;;;;;;;5049162;27;20534;-74
2022/02/24 17:14:08;;;;;;;5.67;2.27;;;;;;;;;;5031433;27;20467;-73
2022/02/24 17:16:40;;;;;;;2.87;1.30;;;;;;;;;;5031790;28;20435;-74
2022/02/24 17:19:12;;;;;;;4.23;1.90;;;;;;;;;;5042405;27;20458;-74
2022/02/24 17:21:44;;;;;;;4.53;1.83;;;;;;;;;;5039753;27;20441;-73